Argo — SMOH — position and weather

sailwx.info

Track history (hours):
 
Tides and Currents Weather Stations Pressure Air Temp Water Temp Dewpoint Dewpoint Depression Visibility Wind Speed Wind Dir Waves Ship Positions

Argo

Last reported at 2017-Sep-21 10:52 UTC. Time now 2017-Sep-22 12:00 UTC.
Position N 59°20' E 018°05'.

Length 26 m.

Type: Military. MMSI: 265591600.

Date/timePositionNaut miles runAvg speedWind from/ knotsBaromVisibWave heightAir tempDewpointWater temp
2017-Sep-21 10:52N 59°20' E 018°05'0 1.3
2017-Sep-21 10:30N 59°19' E 018°06'4 8.1
2017-Sep-21 10:00N 59°21' E 018°13'510.3
2017-Sep-21 09:30N 59°24' E 018°21'20 6.9
2017-Sep-21 06:35N 59°04' E 018°17'113.1
2017-Sep-21 06:28N 59°03' E 018°15'4 0.2
2017-Sep-20 13:48N 59°04' E 018°08'1 5.0
2017-Sep-20 13:30N 59°03' E 018°07'5 9.9
2017-Sep-20 13:00N 58°59' E 018°03'814.0
2017-Sep-20 12:28N 58°51' E 018°00'3010.2
2017-Sep-20 09:33N 58°39' E 017°08'112.1
2017-Sep-20 09:26N 58°38' E 017°06'613.8
2017-Sep-20 09:00N 58°35' E 016°56'5 9.7
2017-Sep-20 08:30N 58°30' E 016°55'76 2.9
2017-Sep-19 05:58N 57°16' E 016°27'0 0.0
2017-Sep-18 19:43N 57°16' E 016°27'0 0.0
2017-Sep-18 19:30N 57°16' E 016°27'3 5.9
2017-Sep-18 19:00N 57°17' E 016°33'510.2
2017-Sep-18 18:30N 57°13' E 016°40'5410.9
2017-Sep-18 13:31N 56°21' E 016°11'120.9
2017-Sep-18 13:29N 56°20' E 016°10'1021.4
2017-Sep-18 13:00N 56°11' E 016°04'1019.6
2017-Sep-18 12:30N 56°03' E 015°52'4 8.7
2017-Sep-18 12:00N 56°06' E 015°47'4 7.7
2017-Sep-18 11:30N 56°09' E 015°42'4 6.9
2017-Sep-18 10:59N 56°09' E 015°35'0 0.0
2017-Sep-18 10:29N 56°09' E 015°35'0 0.0
2017-Sep-18 10:00N 56°09' E 015°35'0 0.0
2017-Sep-18 09:30N 56°09' E 015°35'0 0.0
2017-Sep-18 09:00N 56°09' E 015°35'0 0.0
2017-Sep-18 08:30N 56°09' E 015°35'0 0.0
2017-Sep-18 08:00N 56°09' E 015°35'0 0.0
2017-Sep-18 07:30N 56°09' E 015°35'  
2017-Sep-13 06:48N 56°09' E 015°35'0 0.0
2017-Sep-13 06:30N 56°09' E 015°35'0 0.0
2017-Sep-13 06:00N 56°09' E 015°35'0 0.0
2017-Sep-13 05:30N 56°09' E 015°35'0 0.0
2017-Sep-13 05:00N 56°09' E 015°35'0 0.0
2017-Sep-13 04:30N 56°09' E 015°35'0 0.0
2017-Sep-13 04:00N 56°09' E 015°35'0 0.0
2017-Sep-13 03:30N 56°09' E 015°35'0 0.0
2017-Sep-13 03:00N 56°09' E 015°35'0 0.0
2017-Sep-13 02:30N 56°09' E 015°35'0 0.0
2017-Sep-13 02:00N 56°09' E 015°35'0 0.0
2017-Sep-13 01:30N 56°09' E 015°35'0 0.0
2017-Sep-13 01:00N 56°09' E 015°35'0 0.0
2017-Sep-13 00:27N 56°09' E 015°35'0 0.0
2017-Sep-13 00:00N 56°09' E 015°35'0 0.0
2017-Sep-12 23:30N 56°09' E 015°35'0 0.0
2017-Sep-12 23:00N 56°09' E 015°35'0 0.0
2017-Sep-12 22:30N 56°09' E 015°35'0 0.0
2017-Sep-12 22:00N 56°09' E 015°35'0 0.0
2017-Sep-12 21:30N 56°09' E 015°35'0 0.0
2017-Sep-12 21:00N 56°09' E 015°35'0 0.0
2017-Sep-12 20:30N 56°09' E 015°35'0 0.0
2017-Sep-12 20:00N 56°09' E 015°35'0 0.0
2017-Sep-12 19:30N 56°09' E 015°35'0 0.0
2017-Sep-12 19:00N 56°09' E 015°35'0 0.0
2017-Sep-12 18:30N 56°09' E 015°35'0 0.0
2017-Sep-12 18:00N 56°09' E 015°35'0 0.0
2017-Sep-12 17:30N 56°09' E 015°35'0 0.0
2017-Sep-12 17:00N 56°09' E 015°35'0 0.0
2017-Sep-12 16:30N 56°09' E 015°35'0 0.0
2017-Sep-12 16:00N 56°09' E 015°35'0 0.0
2017-Sep-12 15:30N 56°09' E 015°35'0 0.0
2017-Sep-12 15:00N 56°09' E 015°35'0 0.0
2017-Sep-12 14:30N 56°09' E 015°35'0 0.0
2017-Sep-12 14:00N 56°09' E 015°35'0 0.0
2017-Sep-12 13:30N 56°09' E 015°35'0 0.0
2017-Sep-12 13:00N 56°09' E 015°35'0 0.0
2017-Sep-12 12:30N 56°09' E 015°35'0 0.0
2017-Sep-12 12:00N 56°09' E 015°35'0 0.0
2017-Sep-12 11:30N 56°09' E 015°35'0 0.0
2017-Sep-12 11:00N 56°09' E 015°35'0 0.0
2017-Sep-12 08:56N 56°09' E 015°35'  
Track history (hours):
 
Tides and Currents Weather Stations Pressure Air Temp Water Temp Dewpoint Dewpoint Depression Visibility Wind Speed Wind Dir Waves Ship Positions

Argo

Last reported at 2017-Sep-21 10:52 UTC. Time now 2017-Sep-22 12:00 UTC.
Position N 59°20' E 018°05'.

Length 26 m.

Type: Military. MMSI: 265591600.

Date/timePositionNaut miles runAvg speedWind from/ knotsBaromVisibWave heightAir tempDewpointWater temp
2017-Sep-21 10:52N 59°20' E 018°05'0 1.3
2017-Sep-21 10:30N 59°19' E 018°06'4 8.1
2017-Sep-21 10:00N 59°21' E 018°13'510.3
2017-Sep-21 09:30N 59°24' E 018°21'20 6.9
2017-Sep-21 06:35N 59°04' E 018°17'113.1
2017-Sep-21 06:28N 59°03' E 018°15'4 0.2
2017-Sep-20 13:48N 59°04' E 018°08'1 5.0
2017-Sep-20 13:30N 59°03' E 018°07'5 9.9
2017-Sep-20 13:00N 58°59' E 018°03'814.0
2017-Sep-20 12:28N 58°51' E 018°00'3010.2
2017-Sep-20 09:33N 58°39' E 017°08'112.1
2017-Sep-20 09:26N 58°38' E 017°06'613.8
2017-Sep-20 09:00N 58°35' E 016°56'5 9.7
2017-Sep-20 08:30N 58°30' E 016°55'76 2.9
2017-Sep-19 05:58N 57°16' E 016°27'0 0.0
2017-Sep-18 19:43N 57°16' E 016°27'0 0.0
2017-Sep-18 19:30N 57°16' E 016°27'3 5.9
2017-Sep-18 19:00N 57°17' E 016°33'510.2
2017-Sep-18 18:30N 57°13' E 016°40'5410.9
2017-Sep-18 13:31N 56°21' E 016°11'120.9
2017-Sep-18 13:29N 56°20' E 016°10'1021.4
2017-Sep-18 13:00N 56°11' E 016°04'1019.6
2017-Sep-18 12:30N 56°03' E 015°52'4 8.7
2017-Sep-18 12:00N 56°06' E 015°47'4 7.7
2017-Sep-18 11:30N 56°09' E 015°42'4 6.9
2017-Sep-18 10:59N 56°09' E 015°35'0 0.0
2017-Sep-18 10:29N 56°09' E 015°35'0 0.0
2017-Sep-18 10:00N 56°09' E 015°35'0 0.0
2017-Sep-18 09:30N 56°09' E 015°35'0 0.0
2017-Sep-18 09:00N 56°09' E 015°35'0 0.0
2017-Sep-18 08:30N 56°09' E 015°35'0 0.0
2017-Sep-18 08:00N 56°09' E 015°35'0 0.0
2017-Sep-18 07:30N 56°09' E 015°35'  
2017-Sep-13 06:48N 56°09' E 015°35'0 0.0
2017-Sep-13 06:30N 56°09' E 015°35'0 0.0
2017-Sep-13 06:00N 56°09' E 015°35'0 0.0
2017-Sep-13 05:30N 56°09' E 015°35'0 0.0
2017-Sep-13 05:00N 56°09' E 015°35'0 0.0
2017-Sep-13 04:30N 56°09' E 015°35'0 0.0
2017-Sep-13 04:00N 56°09' E 015°35'0 0.0
2017-Sep-13 03:30N 56°09' E 015°35'0 0.0
2017-Sep-13 03:00N 56°09' E 015°35'0 0.0
2017-Sep-13 02:30N 56°09' E 015°35'0 0.0
2017-Sep-13 02:00N 56°09' E 015°35'0 0.0
2017-Sep-13 01:30N 56°09' E 015°35'0 0.0
2017-Sep-13 01:00N 56°09' E 015°35'0 0.0
2017-Sep-13 00:27N 56°09' E 015°35'0 0.0
2017-Sep-13 00:00N 56°09' E 015°35'0 0.0
2017-Sep-12 23:30N 56°09' E 015°35'0 0.0
2017-Sep-12 23:00N 56°09' E 015°35'0 0.0
2017-Sep-12 22:30N 56°09' E 015°35'0 0.0
2017-Sep-12 22:00N 56°09' E 015°35'0 0.0
2017-Sep-12 21:30N 56°09' E 015°35'0 0.0
2017-Sep-12 21:00N 56°09' E 015°35'0 0.0
2017-Sep-12 20:30N 56°09' E 015°35'0 0.0
2017-Sep-12 20:00N 56°09' E 015°35'0 0.0
2017-Sep-12 19:30N 56°09' E 015°35'0 0.0
2017-Sep-12 19:00N 56°09' E 015°35'0 0.0
2017-Sep-12 18:30N 56°09' E 015°35'0 0.0
2017-Sep-12 18:00N 56°09' E 015°35'0 0.0
2017-Sep-12 17:30N 56°09' E 015°35'0 0.0
2017-Sep-12 17:00N 56°09' E 015°35'0 0.0
2017-Sep-12 16:30N 56°09' E 015°35'0 0.0
2017-Sep-12 16:00N 56°09' E 015°35'0 0.0
2017-Sep-12 15:30N 56°09' E 015°35'0 0.0
2017-Sep-12 15:00N 56°09' E 015°35'0 0.0
2017-Sep-12 14:30N 56°09' E 015°35'0 0.0
2017-Sep-12 14:00N 56°09' E 015°35'0 0.0
2017-Sep-12 13:30N 56°09' E 015°35'0 0.0
2017-Sep-12 13:00N 56°09' E 015°35'0 0.0
2017-Sep-12 12:30N 56°09' E 015°35'0 0.0
2017-Sep-12 12:00N 56°09' E 015°35'0 0.0
2017-Sep-12 11:30N 56°09' E 015°35'0 0.0
2017-Sep-12 11:00N 56°09' E 015°35'0 0.0
2017-Sep-12 08:56N 56°09' E 015°35'  

Dump ship's entire track history